Terminal Aerodrome Forecast
Issued by NWS Mt. Holly, NJ

Home | Current Version | Previous Version | Text Only | Print | Product List | Glossary On
Versions: 1 2 3 4 5 6 7 8 9 10 11 12 13 14 15 16 17 18 19
000
FTUS41 KPHI 270520
TAFRDG
TAF
KRDG 270520Z 2706/2806 34005KT P6SM BKN080
     FM271000 VRB03KT P6SM SCT070
     FM271600 26012KT P6SM VCSH BKN070
     FM272200 28008KT P6SM SCT060
     FM280200 30004KT P6SM SCT250=

USA.gov is the U.S. government's official web portal to all federal, state and local government web resources and services.